Airfield :
LOGIN :

Register | Disclaimer

   EN    FR    IT 

 










Legend :    VFR   Marginal VFR   IFR   Intensive IFR   Very Intensive IFR
Visi :
Ceiling :
>= 8 km
>= 3000ft
5 to 8 km
1000 to 3000 ft
1500m to 5 km
500 to 1000 ft
800 to 1500m
200 to 500 ft
< 800m
< 200 ft
Symbols :   Thunderstorms  Fog  Heavy snow  Heavy precipitations  Wind > 20 kt
SIGMETs :     Misc.  Thunderstorms  Icing  Turbulence  Mountain Waves  Volcanic Ashes






- Airport Elevation : 1276 ft
- IATA code : STR


EDDS - Stuttgart

CURRENT METAR :
  • 270850Z 20005KT 160V250 9999 FEW016 SCT045 04/00 Q0990 NOSIG

EXPIRED METARs :
  • 270820Z 21005KT 170V240 9999 FEW016 SCT045 03/00 Q0990 NOSIG
  • 270750Z 23004KT 150V300 9999 SCT016 SCT045 03/00 Q0990 NOSIG
  • 270720Z 17004KT 130V200 9999 SCT016 02/M00 Q0989 NOSIG
  • 270650Z 21003KT 150V260 9999 FEW012 02/M00 Q0989 NOSIG
  • 270620Z 21004KT 160V260 9999 FEW016 SCT045 03/M01 Q0988 NOSIG

TAF TAF EDDS
Valid from the 27 at 06:00 until the 28 at 06:00 UTC


270500Z 2706/2806 20005KT 9999 SCT025
PROB30
TEMPO 2711/2715 4000 -SHRASN BKN020TCU
BECMG 2715/2717 VRB02KT



MET'MAP, your aeronautical weather chart ! - Copyright ORBIFLY December 2007 - Disclaimer

ORBIFLY MET'MAP TEAM :

Programming & Development : Alexandra Zaïnal
Concept & original design : Baudouin d'Aumeries
Assistance for programming : Marc-Olivier Méhu
Technical & hardware support : Manuel Goepfert

Contact : metmap@orbifly.com




SOURCES & CREDITS :

   NOAA